Time;durP1;ratioP1;P1;durP2;ratioP2;P2;SDS_P1;SDS_P2;PMS_P1;PMS_P2;Temp;Humidity;BMP_temperature;BMP_pressure;BME280_temperature;BME280_humidity;BME280_pressure;Samples;Min_cycle;Max_cycle;Signal;HPM_P1;HPM_P2
2024/01/19 00:02:07;;;;;;;5.90;0.30;;;0.30;99.90;;;;;;5057219;28;20102;-63
2024/01/19 00:04:33;;;;;;;7.85;0.40;;;0.20;99.90;;;;;;5057976;28;20051;-63
2024/01/19 00:06:59;;;;;;;5.95;0.50;;;0.10;99.90;;;;;;5074239;28;20237;-63
2024/01/19 00:09:25;;;;;;;6.38;0.30;;;0.20;99.90;;;;;;5074647;28;20399;-63
2024/01/19 00:11:50;;;;;;;5.95;0.30;;;0.10;99.90;;;;;;5057659;28;20096;-63
2024/01/19 00:14:16;;;;;;;7.82;0.60;;;0.10;99.90;;;;;;5073535;28;20047;-63
2024/01/19 00:16:42;;;;;;;4.55;0.38;;;0.00;99.90;;;;;;5073869;28;20050;-62
2024/01/19 00:19:09;;;;;;;8.20;0.50;;;0.00;99.90;;;;;;5090491;28;20555;-63
2024/01/19 00:21:42;;;;;;;6.45;0.30;;;-0.10;99.90;;;;;;5074994;28;20657;-63
2024/01/19 00:24:08;;;;;;;5.90;0.40;;;-0.10;99.90;;;;;;5094499;27;20134;-63
2024/01/19 00:26:34;;;;;;;5.93;0.40;;;-0.10;99.90;;;;;;5078951;28;20044;-63
2024/01/19 00:28:59;;;;;;;6.25;0.73;;;-0.20;99.90;;;;;;5056417;28;20432;-63
2024/01/19 00:31:26;;;;;;;7.35;0.35;;;-0.10;99.90;;;;;;5090809;28;20130;-64
2024/01/19 00:33:52;;;;;;;5.07;0.40;;;-0.10;99.90;;;;;;5091146;28;20540;-63
2024/01/19 00:36:17;;;;;;;2.95;0.30;;;0.00;99.90;;;;;;5090928;28;20121;-64
2024/01/19 00:38:43;;;;;;;6.43;0.40;;;0.00;99.90;;;;;;5074210;28;20043;-63
2024/01/19 00:41:09;;;;;;;4.38;0.32;;;0.00;99.90;;;;;;5073612;28;20340;-63
2024/01/19 00:43:35;;;;;;;6.32;0.40;;;0.10;99.90;;;;;;5073356;28;20097;-63
2024/01/19 00:46:03;;;;;;;4.20;0.65;;;0.00;99.90;;;;;;5056419;28;20032;-63
2024/01/19 00:48:29;;;;;;;4.82;0.52;;;0.00;99.90;;;;;;5098224;27;20035;-63
2024/01/19 00:50:55;;;;;;;7.18;0.43;;;0.00;99.90;;;;;;5073804;28;20226;-64
2024/01/19 00:53:21;;;;;;;3.85;0.20;;;0.00;99.90;;;;;;5090268;28;20126;-64
2024/01/19 00:55:47;;;;;;;2.50;0.20;;;0.10;99.90;;;;;;5091174;28;20508;-63
2024/01/19 00:58:14;;;;;;;3.78;0.20;;;0.00;99.90;;;;;;5090096;28;20096;-63
2024/01/19 01:00:39;;;;;;;3.03;0.30;;;0.10;99.90;;;;;;5089835;28;20040;-63
2024/01/19 01:03:05;;;;;;;4.80;0.35;;;0.30;99.90;;;;;;5072865;28;20047;-63
2024/01/19 01:05:31;;;;;;;6.03;0.20;;;0.30;99.90;;;;;;5056837;28;20250;-63
2024/01/19 01:07:57;;;;;;;4.22;0.20;;;0.30;99.90;;;;;;5090680;28;20039;-63
2024/01/19 01:10:22;;;;;;;2.70;0.45;;;0.40;99.90;;;;;;5073437;28;20036;-62
2024/01/19 01:12:48;;;;;;;3.70;0.10;;;0.40;99.90;;;;;;5089985;28;20468;-62
2024/01/19 01:15:14;;;;;;;5.65;0.20;;;0.40;99.90;;;;;;5073272;28;20073;-63
2024/01/19 01:17:40;;;;;;;6.40;0.10;;;0.40;99.90;;;;;;5089908;28;20524;-63
2024/01/19 01:20:08;;;;;;;3.35;0.20;;;0.40;99.90;;;;;;5071586;28;20027;-63
2024/01/19 01:22:34;;;;;;;3.50;0.20;;;0.40;99.90;;;;;;5089514;28;20051;-64
2024/01/19 01:25:00;;;;;;;3.33;0.40;;;0.30;99.90;;;;;;5089654;28;20043;-63
2024/01/19 01:27:26;;;;;;;5.82;0.30;;;0.20;99.90;;;;;;5042433;28;20150;-64
2024/01/19 01:29:52;;;;;;;3.05;0.20;;;0.20;99.90;;;;;;5056204;28;20126;-63
2024/01/19 01:32:17;;;;;;;5.93;0.20;;;0.30;99.90;;;;;;5088479;28;20267;-64
2024/01/19 01:34:43;;;;;;;4.00;0.22;;;0.30;99.90;;;;;;5089224;28;20031;-63
2024/01/19 01:37:09;;;;;;;7.07;0.40;;;0.20;99.90;;;;;;5055524;28;20098;-63
2024/01/19 01:39:35;;;;;;;7.53;0.45;;;0.10;99.90;;;;;;5089928;28;20043;-63
2024/01/19 01:42:00;;;;;;;5.68;0.20;;;0.10;99.90;;;;;;5089127;28;20742;-64
2024/01/19 01:44:26;;;;;;;4.82;0.20;;;0.20;99.90;;;;;;5055833;28;20311;-64
2024/01/19 01:46:52;;;;;;;1.88;0.20;;;0.10;99.90;;;;;;5089920;28;20047;-63
2024/01/19 01:49:18;;;;;;;5.30;0.40;;;0.30;99.90;;;;;;5071538;28;20517;-65
2024/01/19 01:51:45;;;;;;;6.05;0.20;;;0.30;99.90;;;;;;5072642;28;20092;-63
2024/01/19 01:54:13;;;;;;;2.55;0.20;;;0.40;99.90;;;;;;5089542;28;20498;-63
2024/01/19 01:56:40;;;;;;;3.33;0.20;;;0.30;99.90;;;;;;5071939;28;20408;-62
2024/01/19 01:59:07;;;;;;;3.85;0.20;;;0.30;99.90;;;;;;5089781;28;20317;-63
2024/01/19 02:01:33;;;;;;;6.60;0.30;;;0.30;99.90;;;;;;5072976;28;20047;-64
2024/01/19 02:04:00;;;;;;;7.13;0.30;;;0.40;99.90;;;;;;5073422;28;20078;-63
2024/01/19 02:06:27;;;;;;;5.45;0.20;;;0.30;99.90;;;;;;5089629;28;20039;-63
2024/01/19 02:08:54;;;;;;;2.85;0.10;;;0.40;99.90;;;;;;5073051;28;20035;-63
2024/01/19 02:11:20;;;;;;;4.30;0.20;;;0.50;99.90;;;;;;5075495;28;20931;-63
2024/01/19 02:13:45;;;;;;;4.13;0.47;;;0.60;99.90;;;;;;5072463;28;20103;-64
2024/01/19 02:16:11;;;;;;;5.50;0.30;;;0.50;99.90;;;;;;5072815;28;20091;-63
2024/01/19 02:18:37;;;;;;;4.72;0.50;;;0.50;99.90;;;;;;5089857;28;20493;-62
2024/01/19 02:21:03;;;;;;;6.03;0.30;;;0.60;99.90;;;;;;5090693;28;20047;-63
2024/01/19 02:23:35;;;;;;;3.30;0.35;;;0.60;99.90;;;;;;5072779;28;20069;-62
2024/01/19 02:26:03;;;;;;;3.60;0.20;;;0.30;99.90;;;;;;5089548;28;20131;-64
2024/01/19 02:28:29;;;;;;;5.30;0.15;;;0.40;99.90;;;;;;5071447;28;20225;-63
2024/01/19 02:30:55;;;;;;;5.07;0.20;;;0.40;99.90;;;;;;5089564;28;20031;-63
2024/01/19 02:33:20;;;;;;;4.20;0.20;;;0.60;99.90;;;;;;5089015;28;20489;-65
2024/01/19 02:35:46;;;;;;;3.55;0.20;;;0.30;99.90;;;;;;5073168;28;20055;-63
2024/01/19 02:38:12;;;;;;;6.28;0.20;;;0.30;99.90;;;;;;5055451;28;20043;-63
2024/01/19 02:40:38;;;;;;;6.45;0.40;;;0.70;99.90;;;;;;5043760;28;20048;-64
2024/01/19 02:43:04;;;;;;;9.38;0.40;;;0.60;99.90;;;;;;5055673;28;20043;-62
2024/01/19 02:45:29;;;;;;;10.38;0.40;;;0.60;99.90;;;;;;5071873;28;20500;-63
2024/01/19 02:47:55;;;;;;;5.35;0.30;;;0.50;99.90;;;;;;5073263;28;20072;-63
2024/01/19 02:50:21;;;;;;;6.43;0.30;;;0.10;99.90;;;;;;5089087;28;20175;-64
2024/01/19 02:52:46;;;;;;;8.13;0.40;;;-0.10;99.90;;;;;;5055239;28;20032;-63
2024/01/19 02:55:13;;;;;;;7.50;0.40;;;0.10;99.90;;;;;;5058571;28;20358;-63
2024/01/19 02:57:39;;;;;;;12.82;0.57;;;0.00;99.90;;;;;;5075194;28;20734;-63
2024/01/19 03:00:07;;;;;;;6.78;0.40;;;0.10;99.90;;;;;;5088248;28;20208;-63
2024/01/19 03:02:33;;;;;;;8.07;0.40;;;-0.30;99.90;;;;;;5089512;28;20036;-63
2024/01/19 03:04:59;;;;;;;2.72;0.40;;;0.00;99.90;;;;;;5072675;28;20044;-64
2024/01/19 03:07:25;;;;;;;5.78;0.80;;;-0.20;99.90;;;;;;5074000;28;20079;-63
2024/01/19 03:09:50;;;;;;;7.90;0.50;;;-0.50;99.90;;;;;;5060717;28;20274;-64
2024/01/19 03:12:17;;;;;;;5.45;0.40;;;-0.40;99.90;;;;;;5078273;28;20655;-63
2024/01/19 03:14:43;;;;;;;5.47;0.65;;;-0.60;99.90;;;;;;5078436;28;20082;-63
2024/01/19 03:17:08;;;;;;;12.45;1.25;;;-0.80;99.90;;;;;;5061480;28;20122;-63
2024/01/19 03:19:34;;;;;;;5.70;0.55;;;-0.40;99.90;;;;;;5061496;28;20723;-63
2024/01/19 03:22:00;;;;;;;9.52;0.73;;;-0.90;99.90;;;;;;5096156;27;20111;-64
2024/01/19 03:24:25;;;;;;;5.65;0.38;;;-0.90;99.90;;;;;;5078534;28;20281;-63
2024/01/19 03:26:51;;;;;;;7.38;0.57;;;-0.40;99.90;;;;;;5078902;28;20050;-63
2024/01/19 03:29:18;;;;;;;6.82;0.40;;;-0.30;99.90;;;;;;5095186;27;20504;-64
2024/01/19 03:31:44;;;;;;;9.45;0.60;;;-0.60;99.90;;;;;;5096043;28;20421;-63
2024/01/19 03:34:10;;;;;;;12.82;0.77;;;-0.70;99.90;;;;;;5079496;28;20062;-63
2024/01/19 03:36:35;;;;;;;9.75;1.10;;;-0.60;99.90;;;;;;5095484;27;20062;-63
2024/01/19 03:39:02;;;;;;;8.05;0.95;;;-0.10;99.90;;;;;;5078847;28;20109;-65
2024/01/19 03:41:27;;;;;;;9.68;0.95;;;-0.20;99.90;;;;;;5066380;28;20035;-63
2024/01/19 03:43:53;;;;;;;10.23;1.15;;;-0.50;99.90;;;;;;5078528;28;20265;-64
2024/01/19 03:46:19;;;;;;;7.28;0.80;;;-0.20;99.90;;;;;;5095591;28;20032;-64
2024/01/19 03:48:45;;;;;;;10.00;0.70;;;-0.40;99.90;;;;;;5095779;28;20036;-64
2024/01/19 03:51:11;;;;;;;10.88;0.90;;;-0.40;99.90;;;;;;5078398;28;20051;-64
2024/01/19 03:53:36;;;;;;;7.60;1.17;;;0.10;99.90;;;;;;5061203;28;20043;-64
2024/01/19 03:56:02;;;;;;;7.28;1.02;;;-0.10;99.90;;;;;;5060732;28;20139;-64
2024/01/19 03:58:28;;;;;;;9.45;0.98;;;-0.60;99.90;;;;;;5095401;28;20051;-64
2024/01/19 04:00:54;;;;;;;5.43;0.80;;;-0.10;99.90;;;;;;5078554;28;20524;-64
2024/01/19 04:03:20;;;;;;;6.28;0.77;;;-1.00;99.90;;;;;;5094872;28;20507;-62
2024/01/19 04:05:46;;;;;;;8.07;1.20;;;-0.90;99.90;;;;;;5067054;28;20456;-65
2024/01/19 04:08:11;;;;;;;9.82;1.10;;;-0.90;99.90;;;;;;5064669;28;20131;-63
2024/01/19 04:10:37;;;;;;;8.77;1.20;;;-0.80;99.90;;;;;;5078795;28;20032;-63
2024/01/19 04:13:03;;;;;;;9.95;1.15;;;-0.70;99.90;;;;;;5094837;28;20048;-63
2024/01/19 04:15:31;;;;;;;10.85;1.02;;;-0.60;99.90;;;;;;5078337;28;20299;-63
2024/01/19 04:17:56;;;;;;;9.48;1.02;;;-1.00;99.90;;;;;;5079202;28;20251;-63
2024/01/19 04:20:22;;;;;;;10.52;0.90;;;-1.00;99.90;;;;;;5091903;28;20115;-62
2024/01/19 04:22:48;;;;;;;10.90;0.80;;;-1.30;99.90;;;;;;5075837;28;20048;-63
2024/01/19 04:25:14;;;;;;;6.75;0.75;;;-0.70;99.90;;;;;;5074710;28;20050;-63
2024/01/19 04:27:40;;;;;;;8.63;0.90;;;-0.90;99.90;;;;;;5063188;28;20448;-63
2024/01/19 04:30:07;;;;;;;12.05;0.82;;;-1.40;99.90;;;;;;5075927;28;20050;-62
2024/01/19 04:32:32;;;;;;;12.48;0.90;;;-0.90;99.90;;;;;;5075472;28;20036;-63
2024/01/19 04:34:58;;;;;;;12.48;0.88;;;-0.70;99.90;;;;;;5076053;28;20059;-63
2024/01/19 04:37:24;;;;;;;10.63;1.00;;;-1.30;99.90;;;;;;5091267;28;20075;-62
2024/01/19 04:39:50;;;;;;;14.05;0.70;;;-1.10;99.90;;;;;;5092165;28;20147;-62
2024/01/19 04:42:15;;;;;;;9.95;0.70;;;-1.20;99.90;;;;;;5057286;28;20138;-63
2024/01/19 04:44:44;;;;;;;17.50;1.00;;;-0.50;99.90;;;;;;5058165;28;20032;-63
2024/01/19 04:47:10;;;;;;;11.15;0.80;;;-1.00;99.90;;;;;;5091965;28;20032;-63
2024/01/19 04:49:36;;;;;;;11.23;0.73;;;-1.20;99.90;;;;;;5092908;28;20062;-63
2024/01/19 04:52:02;;;;;;;12.13;1.00;;;-1.00;99.90;;;;;;5075073;28;20024;-63
2024/01/19 04:54:27;;;;;;;12.43;0.80;;;-0.80;99.90;;;;;;5075325;28;20051;-62
2024/01/19 04:56:53;;;;;;;12.27;1.30;;;-0.40;99.90;;;;;;5092567;28;20071;-63
2024/01/19 04:59:19;;;;;;;11.45;1.05;;;-0.70;99.90;;;;;;5077590;28;20066;-63
2024/01/19 05:01:44;;;;;;;11.70;0.68;;;-0.50;99.90;;;;;;5059049;28;20047;-62
2024/01/19 05:04:10;;;;;;;8.63;0.90;;;-0.80;99.90;;;;;;5075233;28;20497;-63
2024/01/19 05:06:36;;;;;;;16.88;1.25;;;-0.80;99.90;;;;;;5075824;28;20118;-63
2024/01/19 05:09:02;;;;;;;12.98;0.85;;;-0.30;99.90;;;;;;5057726;28;20043;-63
2024/01/19 05:11:28;;;;;;;12.00;0.90;;;-0.20;99.90;;;;;;5074124;28;20215;-62
2024/01/19 05:13:53;;;;;;;15.85;0.70;;;-1.00;99.90;;;;;;5074810;28;20984;-64
2024/01/19 05:16:19;;;;;;;15.20;0.80;;;-0.70;99.90;;;;;;5060785;28;20051;-63
2024/01/19 05:18:45;;;;;;;10.88;0.60;;;-0.80;99.90;;;;;;5092363;28;20046;-64
2024/01/19 05:21:11;;;;;;;14.63;1.00;;;-1.10;99.90;;;;;;5092090;28;20480;-63
2024/01/19 05:23:36;;;;;;;11.90;0.70;;;-1.10;99.90;;;;;;5074724;28;20342;-63
2024/01/19 05:26:04;;;;;;;14.30;0.95;;;-1.10;99.90;;;;;;5099786;27;20040;-63
2024/01/19 05:28:33;;;;;;;16.52;0.70;;;-1.10;99.90;;;;;;5074616;28;20072;-63
2024/01/19 05:30:59;;;;;;;12.70;0.85;;;-1.10;99.90;;;;;;5074784;28;20115;-63
2024/01/19 05:33:25;;;;;;;13.32;0.90;;;-0.60;99.90;;;;;;5075265;28;20045;-63
2024/01/19 05:35:50;;;;;;;13.25;0.60;;;-0.60;99.90;;;;;;5074292;28;21250;-64
2024/01/19 05:38:16;;;;;;;13.35;0.80;;;-0.60;99.90;;;;;;5094623;27;20054;-64
2024/01/19 05:40:42;;;;;;;17.27;1.48;;;-0.80;99.90;;;;;;5057500;28;20036;-63
2024/01/19 05:43:08;;;;;;;18.10;1.00;;;-0.50;99.90;;;;;;5090750;28;20611;-64
2024/01/19 05:45:34;;;;;;;9.27;0.77;;;-0.70;99.90;;;;;;5090688;28;20046;-64
2024/01/19 05:47:59;;;;;;;13.25;0.82;;;-0.60;99.90;;;;;;5075265;28;20572;-64
2024/01/19 05:50:25;;;;;;;11.32;0.65;;;-1.00;99.90;;;;;;5074247;28;20043;-62
2024/01/19 05:52:51;;;;;;;13.20;1.52;;;-0.80;99.90;;;;;;5063916;28;20995;-64
2024/01/19 05:55:16;;;;;;;10.88;0.85;;;-0.90;99.90;;;;;;5073254;28;20071;-64
2024/01/19 05:57:42;;;;;;;14.65;1.05;;;-1.10;99.90;;;;;;5074895;28;20173;-62
2024/01/19 06:00:09;;;;;;;16.52;0.85;;;-1.00;99.90;;;;;;5056719;28;20865;-63
2024/01/19 06:02:35;;;;;;;12.10;0.95;;;-1.00;99.90;;;;;;5091532;28;20040;-62
2024/01/19 06:05:01;;;;;;;10.02;1.15;;;-1.20;99.90;;;;;;5057666;28;20486;-64
2024/01/19 06:07:27;;;;;;;14.93;1.85;;;-0.90;99.90;;;;;;5059043;28;20492;-63
2024/01/19 06:09:53;;;;;;;14.52;1.10;;;-1.00;99.90;;;;;;5073786;28;20032;-64
2024/01/19 06:12:19;;;;;;;11.43;0.75;;;-1.20;99.90;;;;;;5058891;28;20579;-63
2024/01/19 06:14:45;;;;;;;10.45;0.80;;;-0.90;99.90;;;;;;5056671;28;20066;-63
2024/01/19 06:17:11;;;;;;;11.05;0.95;;;-0.80;99.90;;;;;;5056381;28;20414;-63
2024/01/19 06:19:37;;;;;;;10.98;0.55;;;-1.20;99.90;;;;;;5091055;27;20040;-63
2024/01/19 06:22:04;;;;;;;14.57;0.98;;;-0.70;99.90;;;;;;5073531;28;20062;-63
2024/01/19 06:24:34;;;;;;;8.93;0.65;;;-1.00;99.90;;;;;;5073353;28;20259;-61
2024/01/19 06:27:01;;;;;;;9.80;0.80;;;-0.90;99.90;;;;;;5066465;28;20047;-63
2024/01/19 06:29:27;;;;;;;14.77;0.98;;;-1.30;99.90;;;;;;5041575;28;20035;-62
2024/01/19 06:31:53;;;;;;;7.70;0.80;;;-1.30;99.90;;;;;;5090945;28;20040;-64
2024/01/19 06:34:18;;;;;;;9.75;0.80;;;-1.30;99.90;;;;;;5073678;28;20504;-63
2024/01/19 06:36:44;;;;;;;16.33;0.73;;;-1.10;99.90;;;;;;5072911;28;20899;-64
2024/01/19 06:39:14;;;;;;;8.65;0.57;;;-0.90;99.90;;;;;;5056019;28;20047;-64
2024/01/19 06:41:44;;;;;;;9.98;0.70;;;-1.30;99.90;;;;;;5080355;28;20448;-64
2024/01/19 06:44:13;;;;;;;12.07;0.85;;;-0.90;99.90;;;;;;5055914;28;20397;-62
2024/01/19 06:46:44;;;;;;;9.77;0.68;;;-1.10;99.90;;;;;;5090501;28;20050;-63
2024/01/19 06:49:10;;;;;;;10.38;0.63;;;-1.10;99.90;;;;;;5072889;28;20047;-63
2024/01/19 06:51:36;;;;;;;14.15;0.60;;;-1.00;99.90;;;;;;5075703;28;20251;-62
2024/01/19 06:54:02;;;;;;;9.35;0.50;;;-1.20;99.90;;;;;;5073357;28;20044;-64
2024/01/19 06:56:27;;;;;;;10.30;0.98;;;-0.80;99.90;;;;;;5055803;28;20665;-62
2024/01/19 06:58:54;;;;;;;8.32;1.02;;;-1.10;99.90;;;;;;5073234;28;20095;-63
2024/01/19 07:01:20;;;;;;;13.05;0.80;;;-0.90;99.90;;;;;;5072377;28;20047;-63
2024/01/19 07:03:45;;;;;;;10.30;0.73;;;-1.20;99.90;;;;;;5075386;28;20050;-62
2024/01/19 07:06:11;;;;;;;11.25;0.80;;;-1.20;99.90;;;;;;5072981;28;20039;-62
2024/01/19 07:08:37;;;;;;;12.82;0.98;;;-1.30;99.90;;;;;;5089600;28;20679;-63
2024/01/19 07:11:03;;;;;;;14.38;1.10;;;-1.00;99.90;;;;;;5073264;28;20039;-62
2024/01/19 07:13:29;;;;;;;13.68;1.05;;;-1.20;99.90;;;;;;5056122;28;20493;-62
2024/01/19 07:15:55;;;;;;;13.45;0.73;;;-1.00;99.90;;;;;;5089946;28;20039;-63
2024/01/19 07:18:20;;;;;;;12.25;1.10;;;-0.90;99.90;;;;;;5072832;28;20165;-64
2024/01/19 07:20:46;;;;;;;8.70;0.52;;;-0.90;99.90;;;;;;5056800;28;20040;-65
2024/01/19 07:23:12;;;;;;;10.13;0.50;;;-1.30;99.90;;;;;;5058402;28;20035;-63
2024/01/19 07:29:19;;;;;;;11.40;0.88;;;-1.50;99.90;;;;;;5095375;28;20439;-63
2024/01/19 07:31:45;;;;;;;8.75;0.73;;;-1.30;99.90;;;;;;5090689;28;20031;-63
2024/01/19 07:34:11;;;;;;;8.23;0.73;;;-1.10;99.90;;;;;;5090486;28;20055;-63
2024/01/19 07:36:37;;;;;;;16.00;0.85;;;-1.50;99.90;;;;;;5056242;28;20064;-64
2024/01/19 07:39:04;;;;;;;9.18;0.80;;;-1.60;99.90;;;;;;5090961;28;20142;-63
2024/01/19 07:41:30;;;;;;;10.50;0.75;;;-1.40;99.90;;;;;;5056055;28;20099;-63
2024/01/19 07:43:56;;;;;;;7.18;0.75;;;-1.50;99.90;;;;;;5056605;28;20155;-64
2024/01/19 07:46:22;;;;;;;6.82;1.00;;;-1.50;99.90;;;;;;5073227;28;20039;-64
2024/01/19 07:48:48;;;;;;;10.23;1.00;;;-1.20;99.90;;;;;;5073300;28;20044;-63
2024/01/19 07:51:13;;;;;;;12.75;0.80;;;-1.20;99.90;;;;;;5056128;28;20066;-63
2024/01/19 07:53:39;;;;;;;10.73;1.63;;;-1.00;99.90;;;;;;5074370;28;20086;-63
2024/01/19 07:56:06;;;;;;;11.65;1.48;;;-1.20;99.90;;;;;;5076050;28;20428;-63
2024/01/19 07:58:31;;;;;;;7.28;1.23;;;-1.10;99.90;;;;;;5058660;28;20357;-65
2024/01/19 08:00:57;;;;;;;9.30;1.75;;;-1.20;99.90;;;;;;5076283;28;20543;-63
2024/01/19 08:03:25;;;;;;;7.65;1.25;;;-1.00;99.90;;;;;;5075603;28;20468;-63
2024/01/19 08:05:51;;;;;;;11.30;1.60;;;-1.30;99.90;;;;;;5074812;28;20035;-63
2024/01/19 08:08:17;;;;;;;10.07;1.60;;;-0.90;99.90;;;;;;5092504;28;21374;-64
2024/01/19 08:10:43;;;;;;;11.18;1.92;;;-0.80;99.90;;;;;;5075965;28;20131;-63
2024/01/19 08:13:09;;;;;;;13.07;1.45;;;-1.20;99.90;;;;;;5076853;28;20389;-63
2024/01/19 08:15:35;;;;;;;12.43;1.65;;;-0.60;99.90;;;;;;5077292;28;20070;-63
2024/01/19 08:18:02;;;;;;;11.48;1.20;;;-0.70;99.90;;;;;;5076068;28;20043;-63
2024/01/19 08:20:27;;;;;;;15.52;1.92;;;-0.40;99.90;;;;;;5076679;28;20843;-63
2024/01/19 08:22:54;;;;;;;12.45;1.58;;;-0.70;99.90;;;;;;5076523;28;20122;-64
2024/01/19 08:25:20;;;;;;;13.98;1.23;;;-0.30;99.90;;;;;;5076646;28;20471;-62
2024/01/19 08:27:46;;;;;;;9.75;1.08;;;-0.20;99.90;;;;;;5076819;28;20408;-63
2024/01/19 08:30:12;;;;;;;10.32;1.10;;;-0.60;99.90;;;;;;5109958;27;20042;-62
2024/01/19 08:32:38;;;;;;;10.30;1.17;;;-0.50;99.90;;;;;;5076485;28;20044;-63
2024/01/19 08:35:08;;;;;;;12.38;1.10;;;0.00;99.90;;;;;;5076361;28;20075;-63
2024/01/19 08:37:38;;;;;;;10.70;0.95;;;-0.30;99.90;;;;;;5076880;28;20077;-63
2024/01/19 08:40:08;;;;;;;11.73;0.95;;;-0.10;99.90;;;;;;5077236;28;20094;-65
2024/01/19 08:42:35;;;;;;;11.38;1.17;;;0.00;99.90;;;;;;5076476;28;20043;-64
2024/01/19 08:45:02;;;;;;;11.77;0.90;;;-0.20;99.90;;;;;;5076380;28;20039;-64
2024/01/19 08:47:28;;;;;;;19.77;1.50;;;-0.20;99.90;;;;;;5092966;28;20448;-63
2024/01/19 08:49:54;;;;;;;12.13;1.55;;;-0.30;99.90;;;;;;5093264;28;20039;-62
2024/01/19 08:52:20;;;;;;;15.57;1.02;;;-0.30;99.90;;;;;;5075749;28;20035;-63
2024/01/19 08:54:46;;;;;;;12.65;1.40;;;-0.30;99.90;;;;;;5076822;28;20414;-63
2024/01/19 08:57:12;;;;;;;12.63;1.10;;;-0.30;99.90;;;;;;5076091;28;20051;-63
2024/01/19 08:59:40;;;;;;;11.95;1.13;;;-0.30;99.90;;;;;;5075870;28;20051;-63
2024/01/19 09:02:06;;;;;;;14.10;1.00;;;-0.20;99.90;;;;;;5075800;28;20043;-63
2024/01/19 09:04:35;;;;;;;11.55;0.90;;;-0.20;99.90;;;;;;5075345;28;20071;-63
2024/01/19 09:07:01;;;;;;;10.00;0.82;;;0.00;99.90;;;;;;5076264;28;20094;-64
2024/01/19 09:09:27;;;;;;;8.40;0.93;;;-0.10;99.90;;;;;;5093878;28;20070;-63
2024/01/19 09:11:53;;;;;;;13.68;1.42;;;-0.10;99.90;;;;;;5092774;28;20557;-64
2024/01/19 09:14:20;;;;;;;11.90;1.02;;;0.10;99.90;;;;;;5092772;28;20430;-63
2024/01/19 09:16:46;;;;;;;18.05;1.20;;;0.30;99.90;;;;;;5076190;28;20050;-63
2024/01/19 09:19:12;;;;;;;14.32;1.48;;;0.30;99.90;;;;;;5075828;28;20047;-63
2024/01/19 09:21:39;;;;;;;13.48;1.30;;;0.20;99.90;;;;;;5093061;27;20054;-63
2024/01/19 09:24:06;;;;;;;20.48;1.42;;;0.50;99.90;;;;;;5092917;28;20048;-65
2024/01/19 09:26:32;;;;;;;9.25;1.20;;;0.30;99.90;;;;;;5093285;27;20048;-64
2024/01/19 09:28:58;;;;;;;13.45;1.08;;;0.50;99.90;;;;;;5075627;28;20466;-64
2024/01/19 09:31:25;;;;;;;12.63;1.25;;;0.50;99.90;;;;;;5075494;28;20160;-65
2024/01/19 09:33:51;;;;;;;13.73;1.48;;;0.60;99.90;;;;;;5075491;28;20763;-63
2024/01/19 09:36:16;;;;;;;11.75;1.02;;;0.50;99.90;;;;;;5076011;28;20052;-64
2024/01/19 09:38:43;;;;;;;13.57;1.48;;;0.80;99.90;;;;;;5076250;28;20043;-63
2024/01/19 09:41:32;;;;;;;9.70;1.17;;;0.70;99.90;;;;;;5058634;28;20047;-63
2024/01/19 09:43:59;;;;;;;13.15;1.15;;;0.90;99.90;;;;;;5057944;28;20044;-63
2024/01/19 09:46:29;;;;;;;11.68;1.30;;;1.10;99.90;;;;;;5075705;28;20043;-63
2024/01/19 09:48:58;;;;;;;11.90;0.98;;;1.10;99.90;;;;;;5075972;28;20066;-62
2024/01/19 09:51:39;;;;;;;7.85;0.88;;;1.10;99.90;;;;;;5091947;28;20040;-63
2024/01/19 09:54:07;;;;;;;11.65;0.93;;;1.20;99.90;;;;;;5075167;28;20733;-62
2024/01/19 09:56:33;;;;;;;13.85;1.35;;;1.40;99.90;;;;;;5092361;28;20040;-63
2024/01/19 09:59:01;;;;;;;11.30;1.08;;;1.40;99.90;;;;;;5075925;28;20050;-65
2024/01/19 10:01:27;;;;;;;12.45;1.38;;;1.40;99.90;;;;;;5075001;28;20047;-64
2024/01/19 10:03:58;;;;;;;11.35;0.88;;;1.50;99.90;;;;;;5057760;28;20039;-64
2024/01/19 10:06:24;;;;;;;16.23;1.20;;;1.60;99.90;;;;;;5074591;28;20151;-64
2024/01/19 10:08:54;;;;;;;12.95;1.20;;;1.70;99.90;;;;;;5074942;28;20220;-64
2024/01/19 10:11:21;;;;;;;16.38;1.65;;;1.90;99.90;;;;;;5075223;28;20126;-64
2024/01/19 10:13:47;;;;;;;11.40;1.08;;;2.10;99.90;;;;;;5074280;28;20130;-65
2024/01/19 10:16:12;;;;;;;12.73;0.90;;;2.10;99.90;;;;;;5074236;28;20042;-64
2024/01/19 10:18:40;;;;;;;10.32;1.08;;;2.20;99.90;;;;;;5073885;28;20386;-63
2024/01/19 10:21:06;;;;;;;11.20;1.00;;;2.40;99.90;;;;;;5074842;28;20216;-64
2024/01/19 10:23:32;;;;;;;12.15;1.00;;;2.90;99.90;;;;;;5075065;28;20494;-64
2024/01/19 10:26:18;;;;;;;14.40;1.30;;;3.50;99.90;;;;;;5092066;28;20044;-65
2024/01/19 10:28:44;;;;;;;9.80;0.90;;;4.00;99.90;;;;;;5074689;28;20039;-64
2024/01/19 10:31:23;;;;;;;10.40;1.00;;;4.50;99.90;;;;;;5091058;28;20358;-65
2024/01/19 10:33:50;;;;;;;7.85;0.73;;;4.90;99.90;;;;;;5074682;28;20668;-65
2024/01/19 10:36:17;;;;;;;11.23;1.25;;;5.10;99.90;;;;;;5073187;28;20467;-66
2024/01/19 10:38:42;;;;;;;9.45;1.35;;;5.40;99.90;;;;;;5074312;28;20055;-65
2024/01/19 10:41:22;;;;;;;15.07;1.00;;;5.50;99.90;;;;;;5057153;28;20266;-65
2024/01/19 10:43:48;;;;;;;12.02;1.52;;;5.80;99.90;;;;;;5090479;28;20043;-66
2024/01/19 10:46:22;;;;;;;9.00;0.73;;;6.00;99.90;;;;;;5075269;28;20043;-67
2024/01/19 10:48:50;;;;;;;12.90;1.27;;;6.00;99.90;;;;;;5071248;28;20048;-65
2024/01/19 10:51:19;;;;;;;12.95;1.35;;;6.10;99.90;;;;;;5073626;28;20039;-66
2024/01/19 10:53:49;;;;;;;10.60;0.90;;;6.10;99.90;;;;;;5091065;28;20050;-66
2024/01/19 10:56:21;;;;;;;11.30;1.75;;;6.40;99.90;;;;;;5074084;28;20484;-66
2024/01/19 10:58:47;;;;;;;11.95;1.10;;;6.40;99.90;;;;;;5056071;28;20426;-67
2024/01/19 11:01:15;;;;;;;13.77;1.05;;;6.50;99.90;;;;;;5072609;28;20199;-68
2024/01/19 11:03:45;;;;;;;14.40;1.67;;;6.60;99.90;;;;;;5057491;28;20063;-67
2024/01/19 11:06:11;;;;;;;13.80;1.35;;;6.80;99.90;;;;;;5074164;28;20187;-67
2024/01/19 11:08:38;;;;;;;10.05;1.20;;;7.00;99.90;;;;;;5073536;28;20354;-67
2024/01/19 11:11:07;;;;;;;8.48;0.90;;;6.90;99.90;;;;;;5090590;28;20035;-67
2024/01/19 11:13:43;;;;;;;10.63;1.20;;;6.60;99.90;;;;;;5072695;28;20048;-66
2024/01/19 11:16:15;;;;;;;13.32;1.17;;;5.70;99.90;;;;;;5107533;27;20658;-66
2024/01/19 11:18:43;;;;;;;10.80;0.70;;;5.30;99.90;;;;;;5073394;28;20108;-66
2024/01/19 11:21:09;;;;;;;8.55;0.88;;;5.30;99.90;;;;;;5073329;28;20082;-67
2024/01/19 11:23:37;;;;;;;6.90;0.60;;;5.70;99.90;;;;;;5073046;28;20557;-68
2024/01/19 11:26:26;;;;;;;9.57;0.77;;;6.00;99.90;;;;;;5056289;28;20043;-68
2024/01/19 11:28:59;;;;;;;9.30;1.02;;;6.20;99.90;;;;;;5091915;28;20642;-67
2024/01/19 11:31:31;;;;;;;6.70;0.63;;;6.50;99.90;;;;;;5093663;28;20028;-68
2024/01/19 11:34:00;;;;;;;7.13;0.63;;;6.70;99.90;;;;;;5076055;28;20409;-67
2024/01/19 11:36:38;;;;;;;8.57;1.10;;;6.80;99.90;;;;;;5058821;28;20327;-67
2024/01/19 11:39:14;;;;;;;6.78;0.90;;;6.40;61.60;;;;;;5093744;28;20035;-67
2024/01/19 11:41:41;;;;;;;9.13;0.82;;;6.60;99.90;;;;;;5092055;28;20199;-67
2024/01/19 11:44:10;;;;;;;7.32;0.50;;;6.80;99.90;;;;;;5075870;28;20196;-67
2024/01/19 11:46:46;;;;;;;11.20;0.65;;;7.20;99.90;;;;;;5076081;28;20064;-67
2024/01/19 11:49:35;;;;;;;8.35;0.73;;;7.30;99.90;;;;;;5059678;28;20130;-67
2024/01/19 11:52:03;;;;;;;9.27;0.52;;;7.20;90.50;;;;;;5092940;28;20279;-67
2024/01/19 11:54:33;;;;;;;8.27;0.93;;;7.30;99.90;;;;;;5080680;28;20097;-67
2024/01/19 11:57:31;;;;;;;6.25;0.70;;;7.20;99.90;;;;;;5092942;28;20040;-67
2024/01/19 11:59:57;;;;;;;8.60;0.70;;;7.00;36.60;;;;;;5010777;28;20134;-67
2024/01/19 12:02:30;;;;;;;6.53;0.60;;;7.10;99.90;;;;;;5075254;28;20043;-67
2024/01/19 12:05:00;;;;;;;6.65;0.63;;;7.20;99.90;;;;;;5070846;27;20093;-66
2024/01/19 12:07:25;;;;;;;8.07;0.93;;;7.20;99.90;;;;;;5092499;28;20123;-65
2024/01/19 12:10:08;;;;;;;11.20;1.20;;;7.50;99.90;;;;;;5075607;28;20566;-66
2024/01/19 12:12:35;;;;;;;11.33;0.60;;;7.60;60.50;;;;;;5092445;28;20059;-65
2024/01/19 12:15:02;;;;;;;10.00;0.70;;;7.80;99.90;;;;;;5059982;28;20540;-65
2024/01/19 12:17:28;;;;;;;8.70;0.60;;;8.00;99.90;;;;;;5075918;28;20499;-66
2024/01/19 12:19:54;;;;;;;7.25;0.65;;;7.80;92.80;;;;;;5075094;28;20050;-65
2024/01/19 12:22:21;;;;;;;8.57;0.68;;;7.80;99.90;;;;;;5091817;28;20255;-65
2024/01/19 12:24:47;;;;;;;5.75;0.50;;;8.00;99.90;;;;;;5092652;28;20104;-64
2024/01/19 12:27:20;;;;;;;7.75;0.43;;;8.10;99.90;;;;;;5075731;28;20047;-66
2024/01/19 12:29:46;;;;;;;6.93;0.47;;;8.00;76.70;;;;;;5062017;28;20726;-64
2024/01/19 12:32:15;;;;;;;9.98;1.10;;;8.00;87.80;;;;;;5075567;28;20040;-64
2024/01/19 12:34:55;;;;;;;8.68;0.70;;;8.00;72.80;;;;;;5075101;28;20243;-64
2024/01/19 12:37:21;;;;;;;6.13;0.68;;;8.00;99.90;;;;;;5096061;27;20867;-66
2024/01/19 12:39:47;;;;;;;7.40;1.02;;;7.90;97.60;;;;;;5092267;28;20549;-64
2024/01/19 12:42:13;;;;;;;9.63;0.80;;;7.80;95.80;;;;;;5092140;28;20051;-64
2024/01/19 12:44:39;;;;;;;13.65;1.27;;;7.80;99.90;;;;;;5075340;27;20063;-64
2024/01/19 12:47:05;;;;;;;10.10;0.60;;;7.70;99.90;;;;;;5092980;27;20035;-66
2024/01/19 12:49:30;;;;;;;7.22;0.60;;;7.80;68.90;;;;;;5074952;28;20035;-64
2024/01/19 12:51:56;;;;;;;11.38;0.90;;;8.00;87.50;;;;;;5075392;28;20156;-65